logo
Search for airport 
image banner adimage banner adimage banner ad
image banner ad

HKTU - Kitui

Located in , Kenya

ICAO - , IATA -

Data provided by Airmate  

General information

Coordinates: S1°22'9" E37°58'3"
Elevation is 3672 feet MSL.
 
View others Airports in Eastern Province

Operational data

Special qualification required
Current time UTC:
Current local time:
Weather at : - ( 0 km )
METAR: UMII 230545Z 24006G09MPS 9999 BKN008 BKN019CB 02/00 Q1017 TEMPO 2000 SHRA BKN005
View NOTAMs / SUP AIP / TFR affecting this airport [VIEW]
Communications frequencies: [VIEW]

Runways:

RWY identifierQFULength (ft)Width (ft)SurfaceLDA (ft)
0600UNK
2400UNK

Airport contact information

Address: Kenya

Satellite view of HKTU